createdAt,value
2023-03-07T00:01:36.320Z,101349.94
2023-03-07T00:04:06.891Z,101345.47
2023-03-07T00:06:38.270Z,101336.00
2023-03-07T00:09:09.348Z,101336.34
2023-03-07T00:11:41.312Z,101329.63
2023-03-07T00:14:12.689Z,101326.25
2023-03-07T00:16:43.187Z,101319.47
2023-03-07T00:19:14.575Z,101329.66
2023-03-07T00:21:45.681Z,101327.09
2023-03-07T00:24:17.113Z,101320.50
2023-03-07T00:26:48.359Z,101322.94
2023-03-07T00:29:19.473Z,101325.50
2023-03-07T00:31:51.462Z,101328.75
2023-03-07T00:34:23.049Z,101319.06
2023-03-07T00:36:55.332Z,101313.84
2023-03-07T00:39:26.826Z,101317.25
2023-03-07T00:41:58.495Z,101313.31
2023-03-07T00:44:31.554Z,101310.66
2023-03-07T00:47:02.924Z,101314.44
2023-03-07T00:49:34.732Z,101317.78
2023-03-07T00:52:06.957Z,101315.34
2023-03-07T00:54:38.812Z,101312.72
2023-03-07T00:57:10.785Z,101310.69
2023-03-07T00:59:42.336Z,101303.66
2023-03-07T01:02:13.423Z,101314.63
2023-03-07T01:04:44.559Z,101314.13
2023-03-07T01:07:15.254Z,101307.06
2023-03-07T01:09:48.645Z,101313.16
2023-03-07T01:12:20.619Z,101300.34
2023-03-07T01:14:54.406Z,101298.88
2023-03-07T01:17:25.404Z,101300.91
2023-03-07T01:19:56.478Z,101290.59
2023-03-07T01:22:27.080Z,101294.91
2023-03-07T01:24:58.519Z,101299.38
2023-03-07T01:27:29.394Z,101293.59
2023-03-07T01:30:00.831Z,101294.13
2023-03-07T01:32:33.981Z,101293.94
2023-03-07T01:35:05.703Z,101289.22
2023-03-07T01:37:37.605Z,101295.47
2023-03-07T01:40:11.735Z,101283.59
2023-03-07T01:42:43.610Z,101284.38
2023-03-07T01:45:15.226Z,101275.06
2023-03-07T01:47:49.564Z,101285.06
2023-03-07T01:50:21.530Z,101274.00
2023-03-07T01:53:04.667Z,101267.16
2023-03-07T01:55:37.391Z,101256.78
2023-03-07T01:58:17.994Z,101251.84
2023-03-07T02:00:49.047Z,101255.47
2023-03-07T02:03:24.468Z,101255.03
2023-03-07T02:06:05.405Z,101256.56
2023-03-07T02:08:37.898Z,101245.16
2023-03-07T02:11:09.894Z,101252.78
2023-03-07T02:13:41.602Z,101242.06
2023-03-07T02:16:12.797Z,101233.81
2023-03-07T02:18:47.983Z,101247.13
2023-03-07T02:21:49.772Z,101245.38
2023-03-07T02:24:43.582Z,101237.63
2023-03-07T02:27:15.819Z,101241.13
2023-03-07T02:29:47.175Z,101244.28
2023-03-07T02:32:18.839Z,101242.00
2023-03-07T02:34:49.693Z,101239.03
2023-03-07T02:37:31.944Z,101240.78
2023-03-07T02:40:08.893Z,101229.13
2023-03-07T02:42:42.677Z,101230.94
2023-03-07T02:45:19.800Z,101216.53
2023-03-07T02:47:51.185Z,101224.59
2023-03-07T02:50:22.660Z,101224.72
2023-03-07T02:52:56.574Z,101220.09
2023-03-07T02:55:28.101Z,101228.69
2023-03-07T02:58:03.932Z,101213.72
2023-03-07T03:00:34.550Z,101221.75
2023-03-07T03:03:06.258Z,101212.16
2023-03-07T03:05:37.578Z,101207.28
2023-03-07T03:08:08.823Z,101219.03
2023-03-07T03:10:40.533Z,101202.56
2023-03-07T03:13:12.098Z,101212.53
2023-03-07T03:15:45.602Z,101200.47
2023-03-07T03:18:17.334Z,101208.97
2023-03-07T03:20:48.766Z,101211.66
2023-03-07T03:23:19.960Z,101215.56
2023-03-07T03:26:02.064Z,101206.59
2023-03-07T03:28:36.553Z,101212.41
2023-03-07T03:31:16.541Z,101219.25
2023-03-07T03:33:48.470Z,101215.94
2023-03-07T03:36:20.253Z,101219.31
2023-03-07T03:38:54.959Z,101212.50
2023-03-07T03:41:27.495Z,101221.91
2023-03-07T03:43:59.024Z,101216.56
2023-03-07T03:46:32.580Z,101206.78
2023-03-07T03:49:05.072Z,101228.50
2023-03-07T03:51:37.492Z,101207.41
2023-03-07T03:54:08.808Z,101219.00
2023-03-07T03:56:40.861Z,101211.84
2023-03-07T03:59:12.531Z,101203.66
2023-03-07T04:01:44.298Z,101211.19
2023-03-07T04:04:15.425Z,101210.41
2023-03-07T04:06:46.883Z,101217.84
2023-03-07T04:09:21.276Z,101212.75
2023-03-07T04:11:53.585Z,101204.97
2023-03-07T04:14:25.395Z,101216.06
2023-03-07T04:16:57.171Z,101222.53
2023-03-07T04:19:29.567Z,101210.16
2023-03-07T04:22:01.821Z,101203.31
2023-03-07T04:24:32.962Z,101204.19
2023-03-07T04:27:04.422Z,101197.25
2023-03-07T04:29:35.368Z,101205.63
2023-03-07T04:32:20.321Z,101193.31
2023-03-07T04:34:52.477Z,101199.41
2023-03-07T04:37:23.618Z,101205.63
2023-03-07T04:39:54.980Z,101202.03
2023-03-07T04:42:26.333Z,101197.53
2023-03-07T04:44:57.468Z,101208.69
2023-03-07T04:47:29.223Z,101207.72
2023-03-07T04:50:00.373Z,101204.50
2023-03-07T04:52:33.668Z,101195.94
2023-03-07T04:55:05.068Z,101202.41
2023-03-07T04:57:36.659Z,101211.13
2023-03-07T05:00:10.745Z,101204.16
2023-03-07T05:02:43.192Z,101207.59
2023-03-07T05:05:15.078Z,101200.41
2023-03-07T05:07:47.000Z,101202.25
2023-03-07T05:10:18.928Z,101207.34
2023-03-07T05:12:50.261Z,101215.16
2023-03-07T05:15:20.959Z,101219.44
2023-03-07T05:17:52.669Z,101209.81
2023-03-07T05:20:25.196Z,101212.91
2023-03-07T05:22:56.931Z,101217.16
2023-03-07T05:25:28.576Z,101206.84
2023-03-07T05:28:02.127Z,101215.63
2023-03-07T05:30:33.713Z,101220.66
2023-03-07T05:33:05.393Z,101219.31
2023-03-07T05:35:36.443Z,101217.91
2023-03-07T05:38:07.952Z,101230.78
2023-03-07T05:40:40.331Z,101220.63
2023-03-07T05:43:13.496Z,101217.00
2023-03-07T05:45:45.075Z,101237.16
2023-03-07T05:48:16.098Z,101224.19
2023-03-07T05:50:47.541Z,101225.47
2023-03-07T05:53:20.848Z,101225.38
2023-03-07T05:55:52.965Z,101201.50
2023-03-07T05:58:24.804Z,101220.38
2023-03-07T06:00:56.206Z,101213.47
2023-03-07T06:03:27.658Z,101219.03
2023-03-07T06:05:59.518Z,101224.00
2023-03-07T06:08:31.169Z,101216.56
2023-03-07T06:11:02.463Z,101221.47
2023-03-07T06:13:33.971Z,101217.06
2023-03-07T06:16:05.552Z,101216.94
2023-03-07T06:18:39.545Z,101213.59
2023-03-07T06:21:11.374Z,101207.59
2023-03-07T06:23:47.158Z,101212.78
2023-03-07T06:26:23.804Z,101210.38
2023-03-07T06:28:58.593Z,101215.44
2023-03-07T06:31:33.670Z,101214.81
2023-03-07T06:34:06.303Z,101207.53
2023-03-07T06:36:37.954Z,101218.81
2023-03-07T06:39:09.273Z,101212.63
2023-03-07T06:41:41.901Z,101214.78
2023-03-07T06:44:13.087Z,101218.03
2023-03-07T06:46:44.726Z,101220.75
2023-03-07T06:49:18.874Z,101208.25
2023-03-07T06:51:52.086Z,101212.91
2023-03-07T06:54:23.845Z,101210.09
2023-03-07T06:56:56.614Z,101201.00
2023-03-07T06:59:28.461Z,101213.16
2023-03-07T07:01:59.175Z,101213.78
2023-03-07T07:04:31.223Z,101202.09
2023-03-07T07:07:02.365Z,101210.59
2023-03-07T07:09:33.547Z,101208.22
2023-03-07T07:12:06.480Z,101204.09
2023-03-07T07:14:38.763Z,101206.59
2023-03-07T07:17:13.118Z,101204.63
2023-03-07T07:19:44.101Z,101207.47
2023-03-07T07:22:19.175Z,101208.28
2023-03-07T07:24:53.382Z,101206.38
2023-03-07T07:27:24.194Z,101213.75
2023-03-07T07:29:56.628Z,101211.31
2023-03-07T07:32:27.939Z,101218.69
2023-03-07T07:34:59.335Z,101216.22
2023-03-07T07:37:40.634Z,101216.25
2023-03-07T07:40:12.843Z,101211.38
2023-03-07T07:42:44.942Z,101206.19
2023-03-07T07:45:40.273Z,101210.34
2023-03-07T07:48:14.532Z,101216.84
2023-03-07T07:50:46.300Z,101219.56
2023-03-07T07:53:19.274Z,101214.69
2023-03-07T07:55:51.426Z,101214.41
2023-03-07T07:58:22.531Z,101215.81
2023-03-07T08:00:54.066Z,101226.91
2023-03-07T08:03:25.387Z,101236.50
2023-03-07T08:05:56.366Z,101242.19
2023-03-07T08:08:28.898Z,101243.22
2023-03-07T08:11:00.243Z,101246.78
2023-03-07T08:13:31.656Z,101243.53
2023-03-07T08:16:02.827Z,101242.97
2023-03-07T08:18:33.592Z,101248.38
2023-03-07T08:21:05.214Z,101259.78
2023-03-07T08:23:37.172Z,101265.78
2023-03-07T08:26:11.658Z,101266.53
2023-03-07T08:28:43.724Z,101261.38
2023-03-07T08:31:14.818Z,101265.72
2023-03-07T08:33:46.049Z,101266.56
2023-03-07T08:36:17.749Z,101273.53
2023-03-07T08:38:56.050Z,101267.84
2023-03-07T08:41:27.737Z,101271.34
2023-03-07T08:43:59.447Z,101268.72
2023-03-07T08:46:30.958Z,101271.06
2023-03-07T08:49:02.857Z,101272.44
2023-03-07T08:51:33.703Z,101273.25
2023-03-07T08:54:05.269Z,101282.81
2023-03-07T08:56:36.545Z,101288.50
2023-03-07T08:59:07.798Z,101288.78
2023-03-07T09:01:41.050Z,101294.63
2023-03-07T09:04:12.377Z,101289.97
2023-03-07T09:06:43.841Z,101298.00
2023-03-07T09:09:15.058Z,101299.00
2023-03-07T09:11:46.424Z,101311.31
2023-03-07T09:14:24.166Z,101307.44
2023-03-07T09:16:55.428Z,101302.22
2023-03-07T09:19:28.080Z,101301.44
2023-03-07T09:22:00.473Z,101305.97
2023-03-07T09:24:32.670Z,101302.06
2023-03-07T09:27:04.079Z,101302.91
2023-03-07T09:29:35.524Z,101302.19
2023-03-07T09:32:07.238Z,101307.78
2023-03-07T09:34:38.432Z,101312.88
2023-03-07T09:37:09.580Z,101307.44
2023-03-07T09:39:41.223Z,101319.22
2023-03-07T09:42:20.929Z,101326.34
2023-03-07T09:45:30.275Z,101329.63
2023-03-07T09:48:31.011Z,101330.75
2023-03-07T09:51:29.032Z,101332.94
2023-03-07T09:54:21.348Z,101326.19
2023-03-07T09:57:00.851Z,101333.06
2023-03-07T09:59:53.512Z,101342.06
2023-03-07T10:02:57.470Z,101333.38
2023-03-07T10:05:51.961Z,101340.78
2023-03-07T10:08:30.721Z,101337.59
2023-03-07T10:11:07.931Z,101346.38
2023-03-07T10:14:03.988Z,101341.44
2023-03-07T10:16:52.552Z,101338.56
2023-03-07T10:19:43.920Z,101354.44
2023-03-07T10:22:28.862Z,101348.28
2023-03-07T10:25:02.954Z,101355.44
2023-03-07T10:27:34.864Z,101343.59
2023-03-07T10:30:19.635Z,101343.50
2023-03-07T10:33:01.349Z,101341.38
2023-03-07T10:35:46.504Z,101335.59
2023-03-07T10:38:34.240Z,101348.25
2023-03-07T10:41:13.928Z,101348.06
2023-03-07T10:43:46.082Z,101341.53
2023-03-07T10:46:25.751Z,101347.38
2023-03-07T10:49:10.566Z,101342.94
2023-03-07T10:52:03.513Z,101348.00
2023-03-07T10:54:39.428Z,101350.69
2023-03-07T10:57:14.308Z,101351.22
2023-03-07T10:59:49.845Z,101351.47
2023-03-07T11:02:46.302Z,101348.28
2023-03-07T11:05:34.286Z,101345.25
2023-03-07T11:08:43.821Z,101344.03
2023-03-07T11:11:29.029Z,101344.88
2023-03-07T11:14:18.474Z,101351.22
2023-03-07T11:17:00.848Z,101351.72
2023-03-07T11:19:44.449Z,101347.31
2023-03-07T11:22:28.439Z,101343.66
2023-03-07T11:25:06.794Z,101350.84
2023-03-07T11:27:48.556Z,101345.28
2023-03-07T11:30:39.001Z,101347.47
2023-03-07T11:33:15.829Z,101343.44
2023-03-07T11:36:14.653Z,101342.38
2023-03-07T11:39:05.233Z,101352.41
2023-03-07T11:42:05.206Z,101337.84
2023-03-07T11:44:55.096Z,101340.63
2023-03-07T11:47:51.503Z,101352.81
2023-03-07T11:50:32.490Z,101344.50
2023-03-07T11:53:03.506Z,101342.91
2023-03-07T11:56:26.571Z,101348.97
2023-03-07T11:59:20.031Z,101347.97
2023-03-07T12:02:03.843Z,101349.53
2023-03-07T12:04:43.066Z,101346.41
2023-03-07T12:07:32.491Z,101345.28
2023-03-07T12:10:09.980Z,101352.25
2023-03-07T12:12:55.296Z,101348.97
2023-03-07T12:16:04.519Z,101351.41
2023-03-07T12:18:58.130Z,101345.16
2023-03-07T12:21:50.429Z,101338.31
2023-03-07T12:24:27.259Z,101336.81
2023-03-07T12:27:35.045Z,101339.28
2023-03-07T12:30:22.657Z,101326.50
2023-03-07T12:32:54.453Z,101330.34
2023-03-07T12:35:45.875Z,101340.84
2023-03-07T12:38:33.485Z,101338.72
2023-03-07T12:41:35.471Z,101336.25
2023-03-07T12:44:12.773Z,101331.53
2023-03-07T12:46:50.508Z,101342.34
2023-03-07T12:49:47.839Z,101340.34
2023-03-07T12:52:42.527Z,101329.97
2023-03-07T12:55:20.053Z,101331.31
2023-03-07T12:58:11.819Z,101329.91
2023-03-07T13:00:48.531Z,101338.31
2023-03-07T13:03:44.345Z,101338.69
2023-03-07T13:06:21.890Z,101338.72
2023-03-07T13:08:59.917Z,101343.13
2023-03-07T13:11:35.474Z,101348.47
2023-03-07T13:14:07.693Z,101341.94
2023-03-07T13:16:41.546Z,101355.16
2023-03-07T13:19:37.363Z,101342.56
2023-03-07T13:22:18.067Z,101351.28
2023-03-07T13:24:50.802Z,101352.22
2023-03-07T13:27:33.619Z,101344.47
2023-03-07T13:30:10.857Z,101353.66
2023-03-07T13:32:53.846Z,101350.13
2023-03-07T13:35:31.666Z,101349.88
2023-03-07T13:38:07.698Z,101355.47
2023-03-07T13:40:41.747Z,101353.38
2023-03-07T13:43:22.043Z,101360.78
2023-03-07T13:45:55.266Z,101357.06
2023-03-07T13:48:32.832Z,101351.41
2023-03-07T13:51:10.544Z,101344.13
2023-03-07T13:53:47.892Z,101345.53
2023-03-07T13:56:19.376Z,101346.88
2023-03-07T13:59:12.176Z,101346.72
2023-03-07T14:01:47.201Z,101346.31
2023-03-07T14:04:40.317Z,101343.34
2023-03-07T14:07:33.320Z,101339.59
2023-03-07T14:10:32.381Z,101341.47
2023-03-07T14:13:41.028Z,101346.03
2023-03-07T14:16:33.100Z,101346.16
2023-03-07T14:19:17.413Z,101356.31
2023-03-07T14:22:20.000Z,101348.53
2023-03-07T14:25:10.460Z,101345.88
2023-03-07T14:28:22.281Z,101332.75
2023-03-07T14:31:01.561Z,101326.47
2023-03-07T14:33:33.934Z,101335.53
2023-03-07T14:36:17.282Z,101328.22
2023-03-07T14:38:49.348Z,101324.97
2023-03-07T14:41:30.808Z,101327.88
2023-03-07T14:44:19.629Z,101334.13
2023-03-07T14:47:14.514Z,101336.47
2023-03-07T14:49:59.628Z,101331.66
2023-03-07T14:52:32.151Z,101336.34
2023-03-07T14:55:05.830Z,101331.88
2023-03-07T14:57:42.514Z,101331.41
2023-03-07T15:00:27.277Z,101336.47
2023-03-07T15:03:09.745Z,101329.19
2023-03-07T15:05:53.365Z,101339.53
2023-03-07T15:08:31.392Z,101332.47
2023-03-07T15:11:08.722Z,101334.22
2023-03-07T15:13:59.540Z,101336.69
2023-03-07T15:16:36.643Z,101335.06
2023-03-07T15:19:48.123Z,101343.41
2023-03-07T15:22:25.537Z,101341.84
2023-03-07T15:24:57.832Z,101341.59
2023-03-07T15:27:33.158Z,101332.34
2023-03-07T15:30:26.626Z,101339.81
2023-03-07T15:33:07.470Z,101330.31
2023-03-07T15:35:39.053Z,101331.72
2023-03-07T15:38:18.399Z,101324.31
2023-03-07T15:40:49.961Z,101316.44
2023-03-07T15:43:24.263Z,101320.66
2023-03-07T15:46:15.425Z,101316.81
2023-03-07T15:48:56.462Z,101315.41
2023-03-07T15:51:29.579Z,101302.75
2023-03-07T15:54:12.688Z,101301.81
2023-03-07T15:56:43.978Z,101300.63
2023-03-07T15:59:42.410Z,101307.31
2023-03-07T16:02:47.581Z,101310.38
2023-03-07T16:05:24.849Z,101309.09
2023-03-07T16:08:04.541Z,101288.56
2023-03-07T16:10:35.858Z,101300.03
2023-03-07T16:13:07.100Z,101295.25
2023-03-07T16:15:38.532Z,101296.22
2023-03-07T16:18:10.507Z,101297.41
2023-03-07T16:20:41.839Z,101291.72
2023-03-07T16:23:15.591Z,101304.41
2023-03-07T16:25:47.530Z,101299.56
2023-03-07T16:28:18.850Z,101296.16
2023-03-07T16:30:50.571Z,101296.97
2023-03-07T16:33:21.640Z,101293.44
2023-03-07T16:35:52.914Z,101295.00
2023-03-07T16:38:24.134Z,101295.81
2023-03-07T16:40:55.376Z,101299.72
2023-03-07T16:43:36.794Z,101285.13
2023-03-07T16:46:13.935Z,101292.22
2023-03-07T16:48:46.049Z,101299.69
2023-03-07T16:51:19.618Z,101297.09
2023-03-07T16:53:51.974Z,101290.84
2023-03-07T16:56:31.500Z,101295.31
2023-03-07T16:59:03.302Z,101297.13
2023-03-07T17:01:34.908Z,101296.78
2023-03-07T17:04:06.031Z,101296.44
2023-03-07T17:06:39.395Z,101292.22
2023-03-07T17:09:15.435Z,101302.63
2023-03-07T17:11:51.463Z,101288.41
2023-03-07T17:14:22.763Z,101299.84
2023-03-07T17:16:54.332Z,101299.69
2023-03-07T17:19:30.955Z,101294.78
2023-03-07T17:22:04.378Z,101301.81
2023-03-07T17:24:35.573Z,101310.81
2023-03-07T17:27:06.598Z,101318.84
2023-03-07T17:29:45.758Z,101310.78
2023-03-07T17:32:17.140Z,101309.44
2023-03-07T17:34:48.234Z,101312.44
2023-03-07T17:37:19.351Z,101309.13
2023-03-07T17:39:50.635Z,101317.66
2023-03-07T17:42:22.104Z,101317.66
2023-03-07T17:44:53.458Z,101324.03
2023-03-07T17:47:24.755Z,101311.59
2023-03-07T17:49:55.890Z,101307.06
2023-03-07T17:52:27.298Z,101304.91
2023-03-07T17:54:58.803Z,101309.81
2023-03-07T17:57:30.876Z,101304.00
2023-03-07T18:00:02.176Z,101308.53
2023-03-07T18:02:46.677Z,101312.00
2023-03-07T18:05:17.971Z,101316.00
2023-03-07T18:07:50.706Z,101313.63
2023-03-07T18:10:22.290Z,101316.19
2023-03-07T18:12:57.457Z,101321.41
2023-03-07T18:15:29.325Z,101320.16
2023-03-07T18:18:00.997Z,101328.75
2023-03-07T18:20:33.019Z,101333.50
2023-03-07T18:23:04.186Z,101327.41
2023-03-07T18:25:35.660Z,101327.97
2023-03-07T18:28:06.709Z,101337.44
2023-03-07T18:30:38.029Z,101337.81
2023-03-07T18:33:09.240Z,101345.69
2023-03-07T18:35:40.760Z,101341.13
2023-03-07T18:38:12.252Z,101343.97
2023-03-07T18:40:43.343Z,101351.63
2023-03-07T18:43:15.032Z,101347.66
2023-03-07T18:45:48.002Z,101358.50
2023-03-07T18:48:19.334Z,101360.06
2023-03-07T18:51:07.649Z,101356.22
2023-03-07T18:53:39.878Z,101354.84
2023-03-07T18:56:13.910Z,101350.19
2023-03-07T18:58:45.750Z,101357.72
2023-03-07T19:01:26.174Z,101355.47
2023-03-07T19:04:00.632Z,101354.63
2023-03-07T19:06:46.509Z,101366.91
2023-03-07T19:09:19.904Z,101371.03
2023-03-07T19:11:51.286Z,101370.72
2023-03-07T19:14:22.604Z,101365.34
2023-03-07T19:16:53.999Z,101373.25
2023-03-07T19:19:25.132Z,101363.41
2023-03-07T19:21:56.752Z,101363.75
2023-03-07T19:24:28.237Z,101357.81
2023-03-07T19:27:00.457Z,101359.69
2023-03-07T19:29:33.634Z,101366.94
2023-03-07T19:32:04.800Z,101364.56
2023-03-07T19:34:36.045Z,101366.75
2023-03-07T19:37:07.546Z,101368.47
2023-03-07T19:39:39.099Z,101365.06
2023-03-07T19:42:10.729Z,101359.75
2023-03-07T19:44:42.215Z,101357.81
2023-03-07T19:47:12.966Z,101361.69
2023-03-07T19:49:44.473Z,101360.97
2023-03-07T19:52:16.268Z,101362.25
2023-03-07T19:54:48.168Z,101363.44
2023-03-07T19:57:18.963Z,101360.72
2023-03-07T19:59:57.834Z,101365.13
2023-03-07T20:02:30.896Z,101362.56
2023-03-07T20:05:02.329Z,101360.97
2023-03-07T20:07:32.978Z,101366.03
2023-03-07T20:10:04.029Z,101362.34
2023-03-07T20:12:35.675Z,101368.06
2023-03-07T20:15:07.842Z,101369.97
2023-03-07T20:17:39.246Z,101368.19
2023-03-07T20:20:11.546Z,101378.81
2023-03-07T20:22:43.782Z,101366.66
2023-03-07T20:25:16.039Z,101378.59
2023-03-07T20:27:47.569Z,101364.41
2023-03-07T20:30:21.403Z,101360.31
2023-03-07T20:32:53.084Z,101362.44
2023-03-07T20:35:25.228Z,101357.97
2023-03-07T20:37:56.909Z,101358.25
2023-03-07T20:40:28.199Z,101360.50
2023-03-07T20:42:58.943Z,101358.75
2023-03-07T20:45:30.206Z,101367.25
2023-03-07T20:48:01.274Z,101359.56
2023-03-07T20:50:32.412Z,101361.28
2023-03-07T20:53:03.880Z,101359.44
2023-03-07T20:55:35.018Z,101355.63
2023-03-07T20:58:06.732Z,101354.34
2023-03-07T21:00:38.311Z,101351.50
2023-03-07T21:03:11.606Z,101341.78
2023-03-07T21:05:43.175Z,101346.91
2023-03-07T21:08:14.880Z,101345.91
2023-03-07T21:10:46.096Z,101354.63
2023-03-07T21:13:17.281Z,101346.34
2023-03-07T21:15:55.860Z,101354.31
2023-03-07T21:18:27.379Z,101351.72
2023-03-07T21:21:03.119Z,101351.22
2023-03-07T21:23:34.518Z,101341.66
2023-03-07T21:26:14.330Z,101341.81
2023-03-07T21:28:46.118Z,101329.91
2023-03-07T21:31:24.380Z,101332.94
2023-03-07T21:33:58.209Z,101337.47
2023-03-07T21:36:30.792Z,101329.53
2023-03-07T21:39:03.388Z,101338.66
2023-03-07T21:41:34.450Z,101346.03
2023-03-07T21:44:06.254Z,101340.59
2023-03-07T21:46:37.508Z,101329.94
2023-03-07T21:49:09.194Z,101340.38
2023-03-07T21:51:39.726Z,101338.47
2023-03-07T21:54:10.805Z,101346.72
2023-03-07T21:56:42.027Z,101342.94
2023-03-07T21:59:14.416Z,101352.81
2023-03-07T22:01:45.875Z,101344.38
2023-03-07T22:04:17.178Z,101340.41
2023-03-07T22:09:19.241Z,101335.50
2023-03-07T22:11:49.799Z,101345.00
2023-03-07T22:14:21.263Z,101338.72
2023-03-07T22:16:52.868Z,101329.03
2023-03-07T22:19:23.767Z,101337.13
2023-03-07T22:21:54.989Z,101341.53
2023-03-07T22:24:26.131Z,101347.50
2023-03-07T22:26:57.241Z,101353.25
2023-03-07T22:29:28.368Z,101348.09
2023-03-07T22:32:00.219Z,101336.94
2023-03-07T22:34:31.903Z,101337.25
2023-03-07T22:37:02.851Z,101341.75
2023-03-07T22:39:34.012Z,101348.44
2023-03-07T22:42:05.449Z,101349.25
2023-03-07T22:44:36.420Z,101340.69
2023-03-07T22:47:07.828Z,101343.91
2023-03-07T22:49:38.906Z,101337.59
2023-03-07T22:52:09.933Z,101340.97
2023-03-07T22:54:42.688Z,101327.97
2023-03-07T22:57:14.108Z,101335.75
2023-03-07T22:59:44.649Z,101335.94
2023-03-07T23:02:16.082Z,101331.19
2023-03-07T23:04:47.328Z,101332.31
2023-03-07T23:07:18.653Z,101317.47
2023-03-07T23:09:49.657Z,101330.28
2023-03-07T23:12:20.936Z,101337.44
2023-03-07T23:14:52.404Z,101335.34
2023-03-07T23:17:24.040Z,101327.72
2023-03-07T23:19:55.154Z,101329.44
2023-03-07T23:22:27.021Z,101334.03
2023-03-07T23:24:58.337Z,101327.16
2023-03-07T23:27:29.763Z,101325.28
2023-03-07T23:30:01.222Z,101329.06
2023-03-07T23:32:33.966Z,101321.41
2023-03-07T23:35:05.584Z,101327.75
2023-03-07T23:37:36.676Z,101329.91
2023-03-07T23:40:08.728Z,101321.13
2023-03-07T23:42:40.129Z,101330.91
2023-03-07T23:45:12.069Z,101297.28
2023-03-07T23:47:43.753Z,101310.84
2023-03-07T23:50:14.598Z,101308.69
2023-03-07T23:52:46.411Z,101309.44
2023-03-07T23:55:17.017Z,101305.56
2023-03-07T23:57:50.128Z,101304.97
